sensor_id;sensor_type;location;lat;lon;timestamp;temperature;humidity
74946;HTU21D;63509;45.250;38.102;2023-05-29T00:01:26;20.80;64.12
74946;HTU21D;63509;45.250;38.102;2023-05-29T00:03:52;20.77;64.17
74946;HTU21D;63509;45.250;38.102;2023-05-29T00:06:19;20.75;64.19
74946;HTU21D;63509;45.250;38.102;2023-05-29T00:08:45;20.73;64.20
74946;HTU21D;63509;45.250;38.102;2023-05-29T00:11:12;20.72;64.27
74946;HTU21D;63509;45.250;38.102;2023-05-29T00:13:38;20.69;64.27
74946;HTU21D;63509;45.250;38.102;2023-05-29T00:16:04;20.66;64.34
74946;HTU21D;63509;45.250;38.102;2023-05-29T00:18:31;20.64;64.34
74946;HTU21D;63509;45.250;38.102;2023-05-29T00:20:57;20.62;64.40
74946;HTU21D;63509;45.250;38.102;2023-05-29T00:23:23;20.59;64.43
74946;HTU21D;63509;45.250;38.102;2023-05-29T00:25:50;20.58;64.48
74946;HTU21D;63509;45.250;38.102;2023-05-29T00:28:15;20.56;64.50
74946;HTU21D;63509;45.250;38.102;2023-05-29T00:30:42;20.54;64.54
74946;HTU21D;63509;45.250;38.102;2023-05-29T00:33:08;20.49;64.55
74946;HTU21D;63509;45.250;38.102;2023-05-29T00:35:34;20.47;64.63
74946;HTU21D;63509;45.250;38.102;2023-05-29T00:38:00;20.45;64.67
74946;HTU21D;63509;45.250;38.102;2023-05-29T00:40:26;20.45;64.70
74946;HTU21D;63509;45.250;38.102;2023-05-29T00:42:52;20.45;64.73
74946;HTU21D;63509;45.250;38.102;2023-05-29T00:45:18;20.44;64.80
74946;HTU21D;63509;45.250;38.102;2023-05-29T00:47:44;20.43;64.82
74946;HTU21D;63509;45.250;38.102;2023-05-29T00:50:12;20.41;64.82
74946;HTU21D;63509;45.250;38.102;2023-05-29T00:52:41;20.40;64.88
74946;HTU21D;63509;45.250;38.102;2023-05-29T00:55:08;20.37;64.56
74946;HTU21D;63509;45.250;38.102;2023-05-29T00:57:35;20.35;64.82
74946;HTU21D;63509;45.250;38.102;2023-05-29T01:00:06;20.32;64.86
74946;HTU21D;63509;45.250;38.102;2023-05-29T01:02:43;20.30;65.04
74946;HTU21D;63509;45.250;38.102;2023-05-29T01:05:10;20.28;64.72
74946;HTU21D;63509;45.250;38.102;2023-05-29T01:07:38;20.25;65.00
74946;HTU21D;63509;45.250;38.102;2023-05-29T01:10:05;20.22;65.12
74946;HTU21D;63509;45.250;38.102;2023-05-29T01:15:28;20.20;65.11
74946;HTU21D;63509;45.250;38.102;2023-05-29T01:18:07;20.18;64.92
74946;HTU21D;63509;45.250;38.102;2023-05-29T01:20:44;20.16;65.01
74946;HTU21D;63509;45.250;38.102;2023-05-29T01:26:21;20.13;65.14
74946;HTU21D;63509;45.250;38.102;2023-05-29T01:28:57;20.12;65.24
74946;HTU21D;63509;45.250;38.102;2023-05-29T01:31:26;20.11;65.40
74946;HTU21D;63509;45.250;38.102;2023-05-29T01:33:57;20.10;65.38
74946;HTU21D;63509;45.250;38.102;2023-05-29T01:36:24;20.11;65.52
74946;HTU21D;63509;45.250;38.102;2023-05-29T01:38:51;20.10;65.55
74946;HTU21D;63509;45.250;38.102;2023-05-29T01:41:19;20.09;65.59
74946;HTU21D;63509;45.250;38.102;2023-05-29T01:43:47;20.10;65.62
74946;HTU21D;63509;45.250;38.102;2023-05-29T01:46:18;20.10;65.65
74946;HTU21D;63509;45.250;38.102;2023-05-29T01:48:45;20.09;65.68
74946;HTU21D;63509;45.250;38.102;2023-05-29T01:51:12;20.09;65.73
74946;HTU21D;63509;45.250;38.102;2023-05-29T01:53:40;20.06;65.72
74946;HTU21D;63509;45.250;38.102;2023-05-29T01:56:07;20.04;65.78
74946;HTU21D;63509;45.250;38.102;2023-05-29T01:58:35;20.03;65.79
74946;HTU21D;63509;45.250;38.102;2023-05-29T02:01:02;20.03;65.82
74946;HTU21D;63509;45.250;38.102;2023-05-29T02:03:30;20.01;65.83
74946;HTU21D;63509;45.250;38.102;2023-05-29T02:05:59;20.00;65.83
74946;HTU21D;63509;45.250;38.102;2023-05-29T02:08:26;19.98;65.92
74946;HTU21D;63509;45.250;38.102;2023-05-29T02:10:53;19.96;65.95
74946;HTU21D;63509;45.250;38.102;2023-05-29T02:13:19;19.95;65.97
74946;HTU21D;63509;45.250;38.102;2023-05-29T02:15:47;19.92;66.04
74946;HTU21D;63509;45.250;38.102;2023-05-29T02:18:15;19.91;66.04
74946;HTU21D;63509;45.250;38.102;2023-05-29T02:20:44;19.89;66.09
74946;HTU21D;63509;45.250;38.102;2023-05-29T02:23:11;19.88;66.14
74946;HTU21D;63509;45.250;38.102;2023-05-29T02:25:37;19.87;66.16
74946;HTU21D;63509;45.250;38.102;2023-05-29T02:28:04;19.86;66.20
74946;HTU21D;63509;45.250;38.102;2023-05-29T02:30:32;19.86;66.23
74946;HTU21D;63509;45.250;38.102;2023-05-29T02:32:59;19.86;66.26
74946;HTU21D;63509;45.250;38.102;2023-05-29T02:35:25;19.86;66.30
74946;HTU21D;63509;45.250;38.102;2023-05-29T02:37:51;19.86;66.32
74946;HTU21D;63509;45.250;38.102;2023-05-29T02:40:18;19.85;66.38
74946;HTU21D;63509;45.250;38.102;2023-05-29T02:42:45;19.86;66.39
74946;HTU21D;63509;45.250;38.102;2023-05-29T02:45:12;19.85;66.43
74946;HTU21D;63509;45.250;38.102;2023-05-29T02:47:38;19.85;66.49
74946;HTU21D;63509;45.250;38.102;2023-05-29T02:50:05;19.84;66.51
74946;HTU21D;63509;45.250;38.102;2023-05-29T02:52:32;19.86;66.56
74946;HTU21D;63509;45.250;38.102;2023-05-29T02:54:58;19.86;66.58
74946;HTU21D;63509;45.250;38.102;2023-05-29T02:57:25;19.87;66.61
74946;HTU21D;63509;45.250;38.102;2023-05-29T02:59:51;19.88;66.62
74946;HTU21D;63509;45.250;38.102;2023-05-29T03:02:18;19.88;66.65
74946;HTU21D;63509;45.250;38.102;2023-05-29T03:04:45;19.91;66.63
74946;HTU21D;63509;45.250;38.102;2023-05-29T03:07:12;19.94;66.70
74946;HTU21D;63509;45.250;38.102;2023-05-29T03:09:38;19.97;66.72
74946;HTU21D;63509;45.250;38.102;2023-05-29T03:12:04;19.98;66.77
74946;HTU21D;63509;45.250;38.102;2023-05-29T03:14:32;20.00;66.79
74946;HTU21D;63509;45.250;38.102;2023-05-29T03:17:05;20.02;66.79
74946;HTU21D;63509;45.250;38.102;2023-05-29T03:19:32;20.04;66.83
74946;HTU21D;63509;45.250;38.102;2023-05-29T03:21:59;20.10;66.85
74946;HTU21D;63509;45.250;38.102;2023-05-29T03:24:25;20.14;66.88
74946;HTU21D;63509;45.250;38.102;2023-05-29T03:26:51;20.18;66.91
74946;HTU21D;63509;45.250;38.102;2023-05-29T03:29:18;20.25;66.92
74946;HTU21D;63509;45.250;38.102;2023-05-29T03:31:44;20.28;66.94
74946;HTU21D;63509;45.250;38.102;2023-05-29T03:34:13;20.35;66.97
74946;HTU21D;63509;45.250;38.102;2023-05-29T03:36:48;20.43;66.98
74946;HTU21D;63509;45.250;38.102;2023-05-29T03:39:15;20.50;66.97
74946;HTU21D;63509;45.250;38.102;2023-05-29T03:41:41;20.56;67.02
74946;HTU21D;63509;45.250;38.102;2023-05-29T03:44:09;20.64;67.04
74946;HTU21D;63509;45.250;38.102;2023-05-29T03:46:35;20.72;67.02
74946;HTU21D;63509;45.250;38.102;2023-05-29T03:49:01;20.79;67.02
74946;HTU21D;63509;45.250;38.102;2023-05-29T03:51:29;20.86;66.69
74946;HTU21D;63509;45.250;38.102;2023-05-29T03:53:56;20.90;66.91
74946;HTU21D;63509;45.250;38.102;2023-05-29T03:56:22;20.95;67.03
74946;HTU21D;63509;45.250;38.102;2023-05-29T03:58:49;21.05;67.05
74946;HTU21D;63509;45.250;38.102;2023-05-29T04:01:16;21.13;67.08
74946;HTU21D;63509;45.250;38.102;2023-05-29T04:03:43;21.24;67.07
74946;HTU21D;63509;45.250;38.102;2023-05-29T04:06:10;21.33;67.01
74946;HTU21D;63509;45.250;38.102;2023-05-29T04:08:37;21.38;66.92
74946;HTU21D;63509;45.250;38.102;2023-05-29T04:11:03;21.44;66.82
74946;HTU21D;63509;45.250;38.102;2023-05-29T04:13:29;21.48;66.80
74946;HTU21D;63509;45.250;38.102;2023-05-29T04:15:55;21.53;66.75
74946;HTU21D;63509;45.250;38.102;2023-05-29T04:18:21;21.58;66.83
74946;HTU21D;63509;45.250;38.102;2023-05-29T04:20:48;21.62;66.81
74946;HTU21D;63509;45.250;38.102;2023-05-29T04:23:14;21.70;66.91
74946;HTU21D;63509;45.250;38.102;2023-05-29T04:25:40;21.79;66.91
74946;HTU21D;63509;45.250;38.102;2023-05-29T04:28:07;21.88;66.91
74946;HTU21D;63509;45.250;38.102;2023-05-29T04:30:36;21.96;66.81
74946;HTU21D;63509;45.250;38.102;2023-05-29T04:33:03;22.02;66.70
74946;HTU21D;63509;45.250;38.102;2023-05-29T04:35:30;22.08;66.68
74946;HTU21D;63509;45.250;38.102;2023-05-29T04:38:00;22.11;66.61
74946;HTU21D;63509;45.250;38.102;2023-05-29T04:40:30;22.13;66.56
74946;HTU21D;63509;45.250;38.102;2023-05-29T04:42:58;22.18;66.56
74946;HTU21D;63509;45.250;38.102;2023-05-29T04:45:37;22.20;66.54
74946;HTU21D;63509;45.250;38.102;2023-05-29T04:48:04;22.23;66.49
74946;HTU21D;63509;45.250;38.102;2023-05-29T04:50:31;22.25;66.49
74946;HTU21D;63509;45.250;38.102;2023-05-29T04:52:58;22.27;66.49
74946;HTU21D;63509;45.250;38.102;2023-05-29T04:55:24;22.31;66.46
74946;HTU21D;63509;45.250;38.102;2023-05-29T04:57:51;22.32;66.43
74946;HTU21D;63509;45.250;38.102;2023-05-29T05:00:19;22.36;66.40
74946;HTU21D;63509;45.250;38.102;2023-05-29T05:02:45;22.38;66.35
74946;HTU21D;63509;45.250;38.102;2023-05-29T05:05:13;22.39;66.35
74946;HTU21D;63509;45.250;38.102;2023-05-29T05:07:39;22.42;66.38
74946;HTU21D;63509;45.250;38.102;2023-05-29T05:10:06;22.43;66.40
74946;HTU21D;63509;45.250;38.102;2023-05-29T05:12:33;22.49;66.42
74946;HTU21D;63509;45.250;38.102;2023-05-29T05:15:01;22.53;66.16
74946;HTU21D;63509;45.250;38.102;2023-05-29T05:17:28;22.55;66.35
74946;HTU21D;63509;45.250;38.102;2023-05-29T05:19:54;22.63;66.43
74946;HTU21D;63509;45.250;38.102;2023-05-29T05:22:22;22.72;66.43
74946;HTU21D;63509;45.250;38.102;2023-05-29T05:24:49;22.81;66.43
74946;HTU21D;63509;45.250;38.102;2023-05-29T05:27:15;22.88;66.35
74946;HTU21D;63509;45.250;38.102;2023-05-29T05:29:41;22.96;66.35
74946;HTU21D;63509;45.250;38.102;2023-05-29T05:32:07;23.03;66.28
74946;HTU21D;63509;45.250;38.102;2023-05-29T05:34:33;23.11;66.19
74946;HTU21D;63509;45.250;38.102;2023-05-29T05:37:00;23.17;66.14
74946;HTU21D;63509;45.250;38.102;2023-05-29T05:39:26;23.21;66.05
74946;HTU21D;63509;45.250;38.102;2023-05-29T05:41:53;23.24;66.05
74946;HTU21D;63509;45.250;38.102;2023-05-29T05:44:38;23.25;65.94
74946;HTU21D;63509;45.250;38.102;2023-05-29T05:47:09;23.27;65.82
74946;HTU21D;63509;45.250;38.102;2023-05-29T05:49:36;23.25;65.83
74946;HTU21D;63509;45.250;38.102;2023-05-29T05:52:02;23.25;65.79
74946;HTU21D;63509;45.250;38.102;2023-05-29T05:54:28;23.23;65.74
74946;HTU21D;63509;45.250;38.102;2023-05-29T05:56:54;23.22;65.72
74946;HTU21D;63509;45.250;38.102;2023-05-29T05:59:21;23.18;65.72
74946;HTU21D;63509;45.250;38.102;2023-05-29T06:01:47;23.17;65.74
74946;HTU21D;63509;45.250;38.102;2023-05-29T06:04:13;23.15;65.78
74946;HTU21D;63509;45.250;38.102;2023-05-29T06:06:40;23.16;65.80
74946;HTU21D;63509;45.250;38.102;2023-05-29T06:09:08;23.18;65.79
74946;HTU21D;63509;45.250;38.102;2023-05-29T06:11:35;23.21;65.78
74946;HTU21D;63509;45.250;38.102;2023-05-29T06:14:02;23.26;65.75
74946;HTU21D;63509;45.250;38.102;2023-05-29T06:16:29;23.27;65.75
74946;HTU21D;63509;45.250;38.102;2023-05-29T06:18:56;23.31;65.76
74946;HTU21D;63509;45.250;38.102;2023-05-29T06:21:23;23.39;65.85
74946;HTU21D;63509;45.250;38.102;2023-05-29T06:23:54;23.46;65.88
74946;HTU21D;63509;45.250;38.102;2023-05-29T06:26:21;23.58;65.82
74946;HTU21D;63509;45.250;38.102;2023-05-29T06:28:48;23.65;65.56
74946;HTU21D;63509;45.250;38.102;2023-05-29T06:31:15;23.71;65.77
74946;HTU21D;63509;45.250;38.102;2023-05-29T06:33:41;23.80;65.69
74946;HTU21D;63509;45.250;38.102;2023-05-29T06:36:07;23.88;65.64
74946;HTU21D;63509;45.250;38.102;2023-05-29T06:38:34;23.96;65.47
74946;HTU21D;63509;45.250;38.102;2023-05-29T06:41:09;24.02;65.39
74946;HTU21D;63509;45.250;38.102;2023-05-29T06:43:35;24.06;65.27
74946;HTU21D;63509;45.250;38.102;2023-05-29T06:46:03;24.10;65.22
74946;HTU21D;63509;45.250;38.102;2023-05-29T06:48:33;24.12;65.15
74946;HTU21D;63509;45.250;38.102;2023-05-29T06:51:00;24.11;65.06
74946;HTU21D;63509;45.250;38.102;2023-05-29T06:53:44;24.05;64.99
74946;HTU21D;63509;45.250;38.102;2023-05-29T06:56:12;23.98;64.98
74946;HTU21D;63509;45.250;38.102;2023-05-29T06:58:39;23.90;64.98
74946;HTU21D;63509;45.250;38.102;2023-05-29T07:01:24;23.84;65.11
74946;HTU21D;63509;45.250;38.102;2023-05-29T07:04:02;23.76;65.21
74946;HTU21D;63509;45.250;38.102;2023-05-29T07:06:29;23.71;65.24
74946;HTU21D;63509;45.250;38.102;2023-05-29T07:08:55;23.65;65.30
74946;HTU21D;63509;45.250;38.102;2023-05-29T07:11:22;23.57;65.34
74946;HTU21D;63509;45.250;38.102;2023-05-29T07:13:49;23.49;65.40
74946;HTU21D;63509;45.250;38.102;2023-05-29T07:16:15;23.42;65.47
74946;HTU21D;63509;45.250;38.102;2023-05-29T07:18:43;23.35;65.53
74946;HTU21D;63509;45.250;38.102;2023-05-29T07:21:10;23.29;65.60
74946;HTU21D;63509;45.250;38.102;2023-05-29T07:23:37;23.25;65.65
74946;HTU21D;63509;45.250;38.102;2023-05-29T07:26:03;23.22;65.74
74946;HTU21D;63509;45.250;38.102;2023-05-29T07:28:30;23.16;65.75
74946;HTU21D;63509;45.250;38.102;2023-05-29T07:30:56;23.12;65.79
74946;HTU21D;63509;45.250;38.102;2023-05-29T07:33:23;23.06;65.82
74946;HTU21D;63509;45.250;38.102;2023-05-29T07:35:49;23.00;65.86
74946;HTU21D;63509;45.250;38.102;2023-05-29T07:38:16;22.95;65.91
74946;HTU21D;63509;45.250;38.102;2023-05-29T07:40:42;22.87;65.96
74946;HTU21D;63509;45.250;38.102;2023-05-29T07:43:27;22.79;66.04
74946;HTU21D;63509;45.250;38.102;2023-05-29T07:45:58;22.73;66.14
74946;HTU21D;63509;45.250;38.102;2023-05-29T07:48:24;22.66;66.20
74946;HTU21D;63509;45.250;38.102;2023-05-29T07:50:51;22.60;66.30
74946;HTU21D;63509;45.250;38.102;2023-05-29T07:53:18;22.54;66.43
74946;HTU21D;63509;45.250;38.102;2023-05-29T07:55:46;22.49;66.51
74946;HTU21D;63509;45.250;38.102;2023-05-29T07:58:12;22.44;66.59
74946;HTU21D;63509;45.250;38.102;2023-05-29T08:00:39;22.39;66.69
74946;HTU21D;63509;45.250;38.102;2023-05-29T08:03:05;22.34;66.81
74946;HTU21D;63509;45.250;38.102;2023-05-29T08:05:50;22.32;66.88
74946;HTU21D;63509;45.250;38.102;2023-05-29T08:08:18;22.29;66.56
74946;HTU21D;63509;45.250;38.102;2023-05-29T08:10:45;22.25;66.90
74946;HTU21D;63509;45.250;38.102;2023-05-29T08:13:11;22.22;66.95
74946;HTU21D;63509;45.250;38.102;2023-05-29T08:15:38;22.18;67.05
74946;HTU21D;63509;45.250;38.102;2023-05-29T08:18:05;22.16;67.16
74946;HTU21D;63509;45.250;38.102;2023-05-29T08:20:31;22.13;67.21
74946;HTU21D;63509;45.250;38.102;2023-05-29T08:22:57;22.11;67.27
74946;HTU21D;63509;45.250;38.102;2023-05-29T08:25:23;22.10;67.35
74946;HTU21D;63509;45.250;38.102;2023-05-29T08:27:50;22.08;67.38
74946;HTU21D;63509;45.250;38.102;2023-05-29T08:30:16;22.04;67.41
74946;HTU21D;63509;45.250;38.102;2023-05-29T08:32:42;22.02;67.46
74946;HTU21D;63509;45.250;38.102;2023-05-29T08:35:08;21.96;67.48
74946;HTU21D;63509;45.250;38.102;2023-05-29T08:37:34;21.90;67.50
74946;HTU21D;63509;45.250;38.102;2023-05-29T08:40:01;21.82;67.53
74946;HTU21D;63509;45.250;38.102;2023-05-29T08:42:36;21.74;67.52
74946;HTU21D;63509;45.250;38.102;2023-05-29T08:45:06;21.64;67.62
74946;HTU21D;63509;45.250;38.102;2023-05-29T08:47:36;21.55;67.74
74946;HTU21D;63509;45.250;38.102;2023-05-29T08:50:05;21.49;67.81
74946;HTU21D;63509;45.250;38.102;2023-05-29T08:52:34;21.46;67.90
74946;HTU21D;63509;45.250;38.102;2023-05-29T08:55:04;21.39;67.97
74946;HTU21D;63509;45.250;38.102;2023-05-29T08:57:30;21.36;68.02
74946;HTU21D;63509;45.250;38.102;2023-05-29T08:59:57;21.33;68.04
74946;HTU21D;63509;45.250;38.102;2023-05-29T09:02:24;21.28;68.10
74946;HTU21D;63509;45.250;38.102;2023-05-29T09:04:50;21.24;68.13
74946;HTU21D;63509;45.250;38.102;2023-05-29T09:07:19;21.20;68.17
74946;HTU21D;63509;45.250;38.102;2023-05-29T09:09:46;21.16;68.20
74946;HTU21D;63509;45.250;38.102;2023-05-29T09:12:12;21.11;68.26
74946;HTU21D;63509;45.250;38.102;2023-05-29T09:14:43;21.08;68.25
74946;HTU21D;63509;45.250;38.102;2023-05-29T09:17:11;21.05;68.39
74946;HTU21D;63509;45.250;38.102;2023-05-29T09:19:39;21.02;68.46
74946;HTU21D;63509;45.250;38.102;2023-05-29T09:22:08;21.01;68.54
74946;HTU21D;63509;45.250;38.102;2023-05-29T09:24:37;20.98;68.53
74946;HTU21D;63509;45.250;38.102;2023-05-29T09:27:05;20.99;68.58
74946;HTU21D;63509;45.250;38.102;2023-05-29T09:29:38;20.98;68.59
74946;HTU21D;63509;45.250;38.102;2023-05-29T09:32:11;20.98;68.56
74946;HTU21D;63509;45.250;38.102;2023-05-29T09:34:38;20.95;68.71
74946;HTU21D;63509;45.250;38.102;2023-05-29T09:37:06;20.94;68.78
74946;HTU21D;63509;45.250;38.102;2023-05-29T09:39:49;20.94;68.62
74946;HTU21D;63509;45.250;38.102;2023-05-29T09:42:17;20.95;68.81
74946;HTU21D;63509;45.250;38.102;2023-05-29T09:44:52;20.95;68.68
74946;HTU21D;63509;45.250;38.102;2023-05-29T09:47:19;20.94;68.88
74946;HTU21D;63509;45.250;38.102;2023-05-29T09:49:46;20.94;68.86
74946;HTU21D;63509;45.250;38.102;2023-05-29T09:52:13;20.92;68.89
74946;HTU21D;63509;45.250;38.102;2023-05-29T09:54:43;20.92;68.94
74946;HTU21D;63509;45.250;38.102;2023-05-29T09:57:14;20.89;68.97
74946;HTU21D;63509;45.250;38.102;2023-05-29T09:59:46;20.88;68.97
74946;HTU21D;63509;45.250;38.102;2023-05-29T10:02:18;20.87;69.08
74946;HTU21D;63509;45.250;38.102;2023-05-29T10:04:44;20.87;69.10
74946;HTU21D;63509;45.250;38.102;2023-05-29T10:09:44;20.86;69.16
74946;HTU21D;63509;45.250;38.102;2023-05-29T10:12:16;20.84;69.10
74946;HTU21D;63509;45.250;38.102;2023-05-29T10:14:48;20.84;69.23
74946;HTU21D;63509;45.250;38.102;2023-05-29T10:17:18;20.84;69.20
74946;HTU21D;63509;45.250;38.102;2023-05-29T10:19:49;20.81;69.26
74946;HTU21D;63509;45.250;38.102;2023-05-29T10:22:20;20.79;69.23
74946;HTU21D;63509;45.250;38.102;2023-05-29T10:24:49;20.78;69.29
74946;HTU21D;63509;45.250;38.102;2023-05-29T10:27:16;20.77;69.33
74946;HTU21D;63509;45.250;38.102;2023-05-29T10:29:55;20.74;69.18
74946;HTU21D;63509;45.250;38.102;2023-05-29T10:35:16;20.70;69.25
74946;HTU21D;63509;45.250;38.102;2023-05-29T10:37:52;20.65;69.34
74946;HTU21D;63509;45.250;38.102;2023-05-29T10:40:25;20.64;69.43
74946;HTU21D;63509;45.250;38.102;2023-05-29T10:42:52;20.62;69.53
74946;HTU21D;63509;45.250;38.102;2023-05-29T10:50:44;20.58;69.51
74946;HTU21D;63509;45.250;38.102;2023-05-29T10:53:18;20.57;69.60
74946;HTU21D;63509;45.250;38.102;2023-05-29T10:55:50;20.56;69.65
74946;HTU21D;63509;45.250;38.102;2023-05-29T10:58:22;20.55;69.56
74946;HTU21D;63509;45.250;38.102;2023-05-29T11:00:52;20.53;69.70
74946;HTU21D;63509;45.250;38.102;2023-05-29T11:03:46;20.51;69.47
74946;HTU21D;63509;45.250;38.102;2023-05-29T11:06:20;20.49;69.59
74946;HTU21D;63509;45.250;38.102;2023-05-29T11:08:55;20.49;69.64
74946;HTU21D;63509;45.250;38.102;2023-05-29T11:11:31;20.47;69.63
74946;HTU21D;63509;45.250;38.102;2023-05-29T11:14:04;20.45;69.73
74946;HTU21D;63509;45.250;38.102;2023-05-29T11:19:01;20.44;69.87
74946;HTU21D;63509;45.250;38.102;2023-05-29T11:23:57;20.43;69.94
74946;HTU21D;63509;45.250;38.102;2023-05-29T11:26:27;20.41;69.97
74946;HTU21D;63509;45.250;38.102;2023-05-29T11:28:56;20.44;70.05
74946;HTU21D;63509;45.250;38.102;2023-05-29T11:31:23;20.43;70.09
74946;HTU21D;63509;45.250;38.102;2023-05-29T11:33:50;20.45;70.07
74946;HTU21D;63509;45.250;38.102;2023-05-29T11:36:21;20.43;70.07
74946;HTU21D;63509;45.250;38.102;2023-05-29T11:38:48;20.43;70.07
74946;HTU21D;63509;45.250;38.102;2023-05-29T11:41:17;20.43;70.05
74946;HTU21D;63509;45.250;38.102;2023-05-29T11:43:43;20.41;70.10
74946;HTU21D;63509;45.250;38.102;2023-05-29T11:46:19;20.40;69.97
74946;HTU21D;63509;45.250;38.102;2023-05-29T11:48:46;20.35;70.11
74946;HTU21D;63509;45.250;38.102;2023-05-29T11:51:12;20.34;70.16
74946;HTU21D;63509;45.250;38.102;2023-05-29T11:53:43;20.31;70.15
74946;HTU21D;63509;45.250;38.102;2023-05-29T11:56:10;20.29;70.22
74946;HTU21D;63509;45.250;38.102;2023-05-29T11:58:37;20.27;70.26
74946;HTU21D;63509;45.250;38.102;2023-05-29T12:01:05;20.27;70.30
74946;HTU21D;63509;45.250;38.102;2023-05-29T12:03:37;20.25;70.25
74946;HTU21D;63509;45.250;38.102;2023-05-29T12:06:04;20.25;70.39
74946;HTU21D;63509;45.250;38.102;2023-05-29T12:08:32;20.24;70.45
74946;HTU21D;63509;45.250;38.102;2023-05-29T12:10:58;20.28;70.47
74946;HTU21D;63509;45.250;38.102;2023-05-29T12:13:24;20.29;70.51
74946;HTU21D;63509;45.250;38.102;2023-05-29T12:15:53;20.33;70.51
74946;HTU21D;63509;45.250;38.102;2023-05-29T12:18:20;20.36;70.54
74946;HTU21D;63509;45.250;38.102;2023-05-29T12:20:46;20.41;70.53
74946;HTU21D;63509;45.250;38.102;2023-05-29T12:23:13;20.46;70.55
74946;HTU21D;63509;45.250;38.102;2023-05-29T12:25:39;20.49;70.55
74946;HTU21D;63509;45.250;38.102;2023-05-29T12:28:05;20.54;70.55
74946;HTU21D;63509;45.250;38.102;2023-05-29T12:30:36;20.57;70.48
74946;HTU21D;63509;45.250;38.102;2023-05-29T12:33:03;20.59;70.55
74946;HTU21D;63509;45.250;38.102;2023-05-29T12:35:30;20.61;70.50
74946;HTU21D;63509;45.250;38.102;2023-05-29T12:38:01;20.63;70.52
74946;HTU21D;63509;45.250;38.102;2023-05-29T12:40:34;20.65;70.47
74946;HTU21D;63509;45.250;38.102;2023-05-29T12:43:03;20.70;70.59
74946;HTU21D;63509;45.250;38.102;2023-05-29T12:45:32;20.74;70.58
74946;HTU21D;63509;45.250;38.102;2023-05-29T12:48:03;20.77;70.52
74946;HTU21D;63509;45.250;38.102;2023-05-29T12:50:34;20.83;70.60
74946;HTU21D;63509;45.250;38.102;2023-05-29T12:53:05;20.88;70.68
74946;HTU21D;63509;45.250;38.102;2023-05-29T12:55:34;20.98;70.73
74946;HTU21D;63509;45.250;38.102;2023-05-29T13:00:37;21.22;71.03
74946;HTU21D;63509;45.250;38.102;2023-05-29T13:03:05;21.39;71.10
74946;HTU21D;63509;45.250;38.102;2023-05-29T13:05:32;21.60;71.06
74946;HTU21D;63509;45.250;38.102;2023-05-29T13:07:58;21.77;70.97
74946;HTU21D;63509;45.250;38.102;2023-05-29T13:10:26;21.93;70.90
74946;HTU21D;63509;45.250;38.102;2023-05-29T13:12:53;22.09;70.68
74946;HTU21D;63509;45.250;38.102;2023-05-29T13:15:23;22.20;70.52
74946;HTU21D;63509;45.250;38.102;2023-05-29T13:17:49;22.29;70.45
74946;HTU21D;63509;45.250;38.102;2023-05-29T13:20:17;22.39;70.43
74946;HTU21D;63509;45.250;38.102;2023-05-29T13:22:45;22.49;70.38
74946;HTU21D;63509;45.250;38.102;2023-05-29T13:25:12;22.61;70.29
74946;HTU21D;63509;45.250;38.102;2023-05-29T13:27:41;22.70;70.23
74946;HTU21D;63509;45.250;38.102;2023-05-29T13:30:08;22.77;70.16
74946;HTU21D;63509;45.250;38.102;2023-05-29T13:32:35;22.82;70.06
74946;HTU21D;63509;45.250;38.102;2023-05-29T13:35:02;22.86;69.95
74946;HTU21D;63509;45.250;38.102;2023-05-29T13:37:29;22.86;69.81
74946;HTU21D;63509;45.250;38.102;2023-05-29T13:39:55;22.85;69.77
74946;HTU21D;63509;45.250;38.102;2023-05-29T13:42:21;22.82;69.75
74946;HTU21D;63509;45.250;38.102;2023-05-29T13:44:49;22.79;69.74
74946;HTU21D;63509;45.250;38.102;2023-05-29T13:47:15;22.76;69.73
74946;HTU21D;63509;45.250;38.102;2023-05-29T13:49:41;22.70;69.74
74946;HTU21D;63509;45.250;38.102;2023-05-29T13:52:07;22.67;69.74
74946;HTU21D;63509;45.250;38.102;2023-05-29T13:54:33;22.66;69.74
74946;HTU21D;63509;45.250;38.102;2023-05-29T13:57:03;22.67;69.88
74946;HTU21D;63509;45.250;38.102;2023-05-29T13:59:33;22.71;69.84
74946;HTU21D;63509;45.250;38.102;2023-05-29T14:02:00;22.76;69.83
74946;HTU21D;63509;45.250;38.102;2023-05-29T14:04:29;22.78;69.74
74946;HTU21D;63509;45.250;38.102;2023-05-29T14:06:56;22.80;69.71
74946;HTU21D;63509;45.250;38.102;2023-05-29T14:09:25;22.77;69.67
74946;HTU21D;63509;45.250;38.102;2023-05-29T14:11:58;22.77;69.58
74946;HTU21D;63509;45.250;38.102;2023-05-29T14:14:25;22.75;69.60
74946;HTU21D;63509;45.250;38.102;2023-05-29T14:16:52;22.70;69.59
74946;HTU21D;63509;45.250;38.102;2023-05-29T14:19:20;22.64;69.38
74946;HTU21D;63509;45.250;38.102;2023-05-29T14:21:46;22.56;69.57
74946;HTU21D;63509;45.250;38.102;2023-05-29T14:24:12;22.52;69.62
74946;HTU21D;63509;45.250;38.102;2023-05-29T14:26:39;22.50;69.71
74946;HTU21D;63509;45.250;38.102;2023-05-29T14:29:05;22.51;69.80
74946;HTU21D;63509;45.250;38.102;2023-05-29T14:31:32;22.55;69.83
74946;HTU21D;63509;45.250;38.102;2023-05-29T14:33:58;22.60;69.81
74946;HTU21D;63509;45.250;38.102;2023-05-29T14:36:24;22.64;69.69
74946;HTU21D;63509;45.250;38.102;2023-05-29T14:38:50;22.64;69.64
74946;HTU21D;63509;45.250;38.102;2023-05-29T14:41:16;22.64;69.68
74946;HTU21D;63509;45.250;38.102;2023-05-29T14:43:42;22.66;69.68
74946;HTU21D;63509;45.250;38.102;2023-05-29T14:46:09;22.67;69.64
74946;HTU21D;63509;45.250;38.102;2023-05-29T14:48:35;22.68;69.63
74946;HTU21D;63509;45.250;38.102;2023-05-29T14:51:02;22.68;69.61
74946;HTU21D;63509;45.250;38.102;2023-05-29T14:53:28;22.68;69.61
74946;HTU21D;63509;45.250;38.102;2023-05-29T14:55:54;22.67;69.59
74946;HTU21D;63509;45.250;38.102;2023-05-29T14:58:22;22.67;69.60
74946;HTU21D;63509;45.250;38.102;2023-05-29T15:00:48;22.65;69.59
74946;HTU21D;63509;45.250;38.102;2023-05-29T15:03:14;22.65;69.58
74946;HTU21D;63509;45.250;38.102;2023-05-29T15:05:40;22.63;69.59
74946;HTU21D;63509;45.250;38.102;2023-05-29T15:08:06;22.62;69.58
74946;HTU21D;63509;45.250;38.102;2023-05-29T15:10:32;22.61;69.57
74946;HTU21D;63509;45.250;38.102;2023-05-29T15:12:58;22.58;69.58
74946;HTU21D;63509;45.250;38.102;2023-05-29T15:15:25;22.57;69.61
74946;HTU21D;63509;45.250;38.102;2023-05-29T15:17:53;22.56;69.66
74946;HTU21D;63509;45.250;38.102;2023-05-29T15:20:22;22.54;69.65
74946;HTU21D;63509;45.250;38.102;2023-05-29T15:22:49;22.53;69.68
74946;HTU21D;63509;45.250;38.102;2023-05-29T15:25:17;22.54;69.74
74946;HTU21D;63509;45.250;38.102;2023-05-29T15:27:43;22.56;69.80
74946;HTU21D;63509;45.250;38.102;2023-05-29T15:30:18;22.56;69.73
74946;HTU21D;63509;45.250;38.102;2023-05-29T15:32:47;22.57;69.85